DNIB

Details ICAO DNIB (IBA)
Name IBADAN
Region Nigeria
Timezone Africa/Lagos (UTC+1.0)
Plans Departing 6
Arriving 6
Stats Elevation 725 ft / 221 m (AMSL)
Location 7.362421° 3.978342°
Runways 1
Magnetic Variation 1.948° W
Sunrise 2017-05-27 05:27:32 UTC / 2017-05-27 06:27:32 Local
Sunset 2017-05-27 17:57:53 UTC / 2017-05-27 18:57:53 Local
Advertisement - Login to hide

Runways

ID Width Length Bearing (true) Bearing (mag) Surface Threshold Offset Overrun Length
05 147 ft / 45 m 7,898 ft / 2,407 m 40.00° 41.95° Asphalt 0 ft / 0 m 209 ft / 64 m
23 147 ft / 45 m 7,898 ft / 2,407 m 220.00° 221.95° Asphalt 0 ft / 0 m 225 ft / 69 m

Map

Weather


0- 5 10 15 20 25 30 35+ Temperature / ° C

Clouds and Precipitation
Forecast for 2017-05-27 18:00 UTC. Updated 23 minutes ago

Ground ~20,000 ft ~40,000 ft Winds

METAR

DNIB 271300Z 21005KT 9999 SCT012 32/23 Q1014

TAF

Not found

Frequencies

Tower 122.60 MHz TWR
Warning: Do not use this data for real-world aviation or navigation. No guarantee of current accuracy is given.